Time;durP1;ratioP1;P1;durP2;ratioP2;P2;SDS_P1;SDS_P2;PMS_P1;PMS_P2;Temp;Humidity;BMP_temperature;BMP_pressure;BME280_temperature;BME280_humidity;BME280_pressure;Samples;Min_cycle;Max_cycle;Signal;HPM_P1;HPM_P2
2023/12/09 09:00:37;;;;;;;;;;;;;;;;;;6218492;22;21012;-87
2023/12/09 09:18:58;;;;;;;;;;;;;;;;;;6313527;22;19926;-85
2023/12/09 09:21:23;;;;;;;;;;;;;;;;;;6315974;22;20333;-87
2023/12/09 09:23:49;;;;;;;;;;;;;;;;;;6315107;22;20348;-87
2023/12/09 09:26:14;;;;;;;;;;;;;;;;;;6310244;22;20376;-86
2023/12/09 09:28:39;;;;;;;;;;;;;;;;;;6309541;22;19918;-88
2023/12/09 09:31:05;;;;;;;;;;;;;;;;;;6308161;22;19915;-92
2023/12/09 09:33:31;;;;;;;;;;;;;;;;;;6309096;22;19949;-93
2023/12/09 09:35:56;;;;;;;;;;;;;;;;;;6308903;22;19918;-93
2023/12/09 09:38:22;;;;;;;;;;;;;;;;;;6308357;22;19911;-91
2023/12/09 09:40:48;;;;;;;;;;;;;;;;;;6309638;22;19917;-93
2023/12/09 09:43:18;;;;;;;;;;;;;;;;;;6308682;22;19911;-93
2023/12/09 09:45:44;;;;;;;;;;;;;;;;;;6282108;22;19993;-93
2023/12/09 09:48:10;;;;;;;;;;;;;;;;;;6307380;22;19935;-90
2023/12/09 09:50:42;;;;;;;;;;;;;;;;;;6306722;22;19922;-88
2023/12/09 09:53:09;;;;;;;;;;;;;;;;;;6306796;22;20245;-90
2023/12/09 09:55:35;;;;;;;;;;;;;;;;;;6307365;22;20355;-90
2023/12/09 09:58:01;;;;;;;;;;;;;;;;;;6307086;22;19911;-88
2023/12/09 10:00:28;;;;;;;;;;;;;;;;;;6310540;22;19911;-91
2023/12/09 10:02:54;;;;;;;;;;;;;;;;;;6312119;22;19990;-93
2023/12/09 10:05:22;;;;;;;;;;;;;;;;;;6310269;22;19918;-94
2023/12/09 10:07:47;;;;;;;;;;;;;;;;;;6308645;22;19911;-91
2023/12/09 10:10:13;;;;;;;;;;;;;;;;;;6307512;22;19911;-92
2023/12/09 10:12:38;;;;;;;;;;;;;;;;;;6309505;22;19918;-93
2023/12/09 10:15:04;;;;;;;;;;;;;;;;;;6307728;22;19918;-92
2023/12/09 10:17:30;;;;;;;;;;;;;;;;;;6308525;22;19922;-93
2023/12/09 10:19:56;;;;;;;;;;;;;;;;;;6309061;22;20245;-94
2023/12/09 10:22:22;;;;;;;;;;;;;;;;;;6309589;22;19911;-92
2023/12/09 10:24:50;;;;;;;;;;;;;;;;;;6309025;22;19917;-93
2023/12/09 10:27:19;;;;;;;;;;;;;;;;;;6313045;22;19914;-92
2023/12/09 10:29:44;;;;;;;;;;;;;;;;;;6311706;22;19965;-93
2023/12/09 10:32:11;;;;;;;;;;;;;;;;;;6309560;22;19911;-91
2023/12/09 10:34:37;;;;;;;;;;;;;;;;;;6310749;22;19996;-91
2023/12/09 10:37:03;;;;;;;;;;;;;;;;;;6309139;22;20318;-90
2023/12/09 10:39:29;;;;;;;;;;;;;;;;;;6310562;22;19952;-90
2023/12/09 10:41:56;;;;;;;;;;;;;;;;;;6308943;22;20385;-88
2023/12/09 10:44:21;;;;;;;11.85;7.53;;;;;;;;;;6309763;22;19914;-87
2023/12/09 10:46:48;;;;;;;8.88;6.88;;;;;;;;;;6308006;22;20483;-87
2023/12/09 10:49:14;;;;;;;7.07;6.38;;;;;;;;;;6310420;22;20299;-86
2023/12/09 10:51:39;;;;;;;6.68;6.00;;;;;;;;;;6310234;22;20006;-84
2023/12/09 10:54:05;;;;;;;6.40;5.55;;;;;;;;;;6309563;22;20022;-88
2023/12/09 10:56:31;;;;;;;6.03;5.20;;;;;;;;;;6309594;22;20070;-86
2023/12/09 10:58:57;;;;;;;5.47;4.97;;;;;;;;;;6309289;22;20083;-84
2023/12/09 11:01:24;;;;;;;6.40;4.78;;;;;;;;;;6310598;22;19999;-91
2023/12/09 11:03:49;;;;;;;7.00;4.90;;;;;;;;;;6308133;22;20023;-93
2023/12/09 11:06:17;;;;;;;5.47;4.93;;;;;;;;;;6308384;22;20010;-91
2023/12/09 11:08:43;;;;;;;6.35;5.25;;;;;;;;;;6309605;22;20011;-89
2023/12/09 11:11:09;;;;;;;7.13;5.90;;;;;;;;;;6308464;22;20429;-92
2023/12/09 11:13:36;;;;;;;14.88;9.23;;;;;;;;;;6308540;22;20046;-91
2023/12/09 11:16:12;;;;;;;12.30;7.95;;;;;;;;;;6308123;22;20003;-93
2023/12/09 11:18:49;;;;;;;17.95;9.82;;;;;;;;;;6309714;22;20011;-88
2023/12/09 11:21:16;;;;;;;11.73;6.35;;;;;;;;;;6310290;22;19999;-90
2023/12/09 11:23:51;;;;;;;9.52;7.07;;;;;;;;;;6310659;22;20007;-91
2023/12/09 11:26:19;;;;;;;6.65;5.78;;;;;;;;;;6312034;22;20003;-96
2023/12/09 11:29:04;;;;;;;8.50;6.75;;;;;;;;;;6315501;22;20003;-92
2023/12/09 11:31:34;;;;;;;8.00;6.13;;;;;;;;;;6340209;22;20022;-89
2023/12/09 11:34:00;;;;;;;8.05;6.45;;;;;;;;;;6340427;22;20330;-87
2023/12/09 11:36:27;;;;;;;;;;;;;;;;;;6341084;22;20002;-86
2023/12/09 11:38:53;;;;;;;;;;;;;;;;;;6341349;22;19907;-87
2023/12/09 11:41:19;;;;;;;;;;;;;;;;;;6341131;22;19953;-86
2023/12/09 11:43:44;;;;;;;;;;;;;;;;;;6341819;22;19959;-85
2023/12/09 11:46:10;;;;;;;;;;;;;;;;;;6313309;22;20044;-87
2023/12/09 11:48:35;;;;;;;;;;;;;;;;;;6341644;22;20214;-88
2023/12/09 11:51:04;;;;;;;;;;;;;;;;;;6314235;22;19907;-90
2023/12/09 11:53:30;;;;;;;;;;;;;;;;;;6313519;22;19913;-88
2023/12/09 11:55:55;;;;;;;;;;;;;;;;;;6342145;22;19911;-86
2023/12/09 11:58:21;;;;;;;;;;;;;;;;;;6341236;22;19914;-85
2023/12/09 12:00:46;;;;;;;;;;;;;;;;;;6313812;22;19914;-83
2023/12/09 12:03:11;;;;;;;;;;;;;;;;;;6341618;22;20280;-84
2023/12/09 12:05:37;;;;;;;;;;;;;;;;;;6341435;22;20329;-86
2023/12/09 12:08:04;;;;;;;;;;;;;;;;;;6341091;22;20326;-85
2023/12/09 12:10:30;;;;;;;;;;;;;;;;;;6341134;22;20384;-84
2023/12/09 12:12:55;;;;;;;;;;;;;;;;;;6341060;22;19925;-82
2023/12/09 12:15:20;;;;;;;;;;;;;;;;;;6340454;22;19913;-81
2023/12/09 12:17:46;;;;;;;;;;;;;;;;;;6340613;22;19981;-80
2023/12/09 12:20:14;;;;;;;;;;;;;;;;;;6340753;22;19907;-83
2023/12/09 12:22:40;;;;;;;;;;;;;;;;;;6340835;22;19907;-84
2023/12/09 12:25:08;;;;;;;;;;;;;;;;;;6340755;22;19990;-83
2023/12/09 12:27:34;;;;;;;;;;;;;;;;;;6312940;22;19906;-83
2023/12/09 12:30:00;;;;;;;;;;;;;;;;;;6340802;22;19930;-85
2023/12/09 12:32:25;;;;;;;;;;;;;;;;;;6340687;22;20214;-82
2023/12/09 12:34:50;;;;;;;;;;;;;;;;;;6341098;22;19907;-83
2023/12/09 12:37:17;;;;;;;;;;;;;;;;;;6340764;22;19932;-83
2023/12/09 12:39:42;;;;;;;;;;;;;;;;;;6341049;22;19911;-84
2023/12/09 12:42:08;;;;;;;;;;;;;;;;;;6341176;22;19913;-83
2023/12/09 12:44:34;;;;;;;;;;;;;;;;;;6340504;22;19987;-83
2023/12/09 12:46:59;;;;;;;;;;;;;;;;;;6340719;22;19906;-83
2023/12/09 12:49:25;;;;;;;;;;;;;;;;;;6340379;22;20330;-83
2023/12/09 12:51:51;;;;;;;;;;;;;;;;;;6340203;22;19910;-83
2023/12/09 12:54:16;;;;;;;;;;;;;;;;;;6340108;22;19907;-84
2023/12/09 12:56:41;;;;;;;;;;;;;;;;;;6340375;22;19906;-83
2023/12/09 12:59:08;;;;;;;;;;;;;;;;;;6312394;22;19913;-83
2023/12/09 13:01:33;;;;;;;;;;;;;;;;;;6340417;22;19906;-88
2023/12/09 13:03:59;;;;;;;;;;;;;;;;;;6340240;22;19960;-88
2023/12/09 13:06:24;;;;;;;;;;;;;;;;;;6340734;22;20237;-88
2023/12/09 13:08:49;;;;;;;;;;;;;;;;;;6340686;22;19906;-90
2023/12/09 13:11:15;;;;;;;;;;;;;;;;;;6341018;22;20036;-89
2023/12/09 13:13:40;;;;;;;;;;;;;;;;;;6340377;22;19914;-91
2023/12/09 13:16:06;;;;;;;;;;;;;;;;;;6340335;22;19906;-87
2023/12/09 13:18:31;;;;;;;;;;;;;;;;;;6340118;22;20226;-90
2023/12/09 13:20:57;;;;;;;;;;;;;;;;;;6340268;22;19914;-91
2023/12/09 13:23:23;;;;;;;;;;;;;;;;;;6340685;22;20425;-85
2023/12/09 13:25:48;;;;;;;;;;;;;;;;;;6340216;22;19911;-86
2023/12/09 13:28:13;;;;;;;;;;;;;;;;;;6340738;22;19907;-86
2023/12/09 13:30:39;;;;;;;;;;;;;;;;;;6340089;22;19960;-86
2023/12/09 13:33:06;;;;;;;;;;;;;;;;;;6340109;22;19910;-86
2023/12/09 13:35:31;;;;;;;;;;;;;;;;;;6340100;22;19906;-86
2023/12/09 13:37:57;;;;;;;;;;;;;;;;;;6340058;22;19907;-86
2023/12/09 13:40:23;;;;;;;;;;;;;;;;;;6339960;22;19914;-87
2023/12/09 13:42:48;;;;;;;;;;;;;;;;;;6340115;22;19914;-86
2023/12/09 13:45:14;;;;;;;;;;;;;;;;;;6312341;22;19907;-87
2023/12/09 13:47:40;;;;;;;;;;;;;;;;;;6339679;22;19902;-85
2023/12/09 13:50:07;;;;;;;;;;;;;;;;;;6340185;22;19911;-85
2023/12/09 13:52:33;;;;;;;;;;;;;;;;;;6339951;22;19949;-87
2023/12/09 13:54:59;;;;;;;;;;;;;;;;;;6341321;22;19913;-87
2023/12/09 13:57:24;;;;;;;;;;;;;;;;;;6341762;22;19907;-87
2023/12/09 13:59:49;;;;;;;;;;;;;;;;;;6342017;22;19902;-87
2023/12/09 14:02:15;;;;;;;;;;;;;;;;;;6341540;22;20309;-87
2023/12/09 14:04:40;;;;;;;;;;;;;;;;;;6341639;22;19907;-85
2023/12/09 14:07:06;;;;;;;;;;;;;;;;;;6341606;22;19910;-87
2023/12/09 14:09:31;;;;;;;;;;;;;;;;;;6314084;22;20032;-87
2023/12/09 14:11:56;;;;;;;;;;;;;;;;;;6341645;22;19911;-86
2023/12/09 14:14:22;;;;;;;;;;;;;;;;;;6341590;22;19981;-86
2023/12/09 14:16:48;;;;;;;;;;;;;;;;;;6341400;22;20314;-86
2023/12/09 14:19:13;;;;;;;;;;;;;;;;;;6341338;22;19968;-85
2023/12/09 14:21:38;;;;;;;;;;;;;;;;;;6341577;22;20211;-87
2023/12/09 14:24:04;;;;;;;;;;;;;;;;;;6341594;22;19907;-86
2023/12/09 14:26:30;;;;;;;;;;;;;;;;;;6342278;22;19907;-84
2023/12/09 14:28:56;;;;;;;;;;;;;;;;;;6343393;22;20325;-84
2023/12/09 14:31:21;;;;;;;;;;;;;;;;;;6341964;22;19989;-82
2023/12/09 14:33:47;;;;;;;;;;;;;;;;;;6313757;22;19911;-87
2023/12/09 14:36:12;;;;;;;;;;;;;;;;;;6341543;22;20320;-83
2023/12/09 14:38:38;;;;;;;;;;;;;;;;;;6341575;22;20214;-84
2023/12/09 14:41:04;;;;;;;;;;;;;;;;;;6342226;22;19969;-85
2023/12/09 14:43:29;;;;;;;;;;;;;;;;;;6342040;22;19914;-85
2023/12/09 14:45:55;;;;;;;;;;;;;;;;;;6341968;22;19937;-85
2023/12/09 14:48:20;;;;;;;;;;;;;;;;;;6342827;22;19931;-88
2023/12/09 14:50:46;;;;;;;;;;;;;;;;;;6342137;22;20064;-85
2023/12/09 14:53:12;;;;;;;;;;;;;;;;;;6315149;22;19906;-86
2023/12/09 17:16:48;;;;;;;;;;;;;;;;;;6311046;22;19914;-83
2023/12/09 17:19:14;;;;;;;;;;;;;;;;;;6340454;22;19915;-86
2023/12/09 17:21:39;;;;;;;;;;;;;;;;;;6340310;22;20032;-86
2023/12/09 17:24:05;;;;;;;;;;;;;;;;;;6340143;22;19915;-87
2023/12/09 17:26:31;;;;;;;;;;;;;;;;;;6313616;22;19906;-88
2023/12/09 17:28:57;;;;;;;;;;;;;;;;;;6313543;22;19911;-88
2023/12/09 17:31:22;;;;;;;;;;;;;;;;;;6342069;22;20214;-87
2023/12/09 17:33:47;;;;;;;;;;;;;;;;;;6314395;22;19907;-88
2023/12/09 17:36:13;;;;;;;;;;;;;;;;;;6310268;22;19959;-89
2023/12/09 17:38:39;;;;;;;;;;;;;;;;;;6311912;22;19946;-89
2023/12/09 17:41:05;;;;;;;;;;;;;;;;;;6340055;22;19917;-87
2023/12/09 17:43:30;;;;;;;;;;;;;;;;;;6312410;22;20377;-89
2023/12/09 17:45:55;;;;;;;;;;;;;;;;;;6312900;22;19918;-88
2023/12/09 17:48:23;;;;;;;;;;;;;;;;;;6314193;22;19934;-88
2023/12/09 17:50:48;;;;;;;;;;;;;;;;;;6342512;22;19914;-88
2023/12/09 17:53:16;;;;;;;;;;;;;;;;;;6339389;22;19933;-89
2023/12/09 17:55:42;;;;;;;;;;;;;;;;;;6339856;22;19914;-89
2023/12/09 17:58:08;;;;;;;;;;;;;;;;;;6312383;22;19934;-89
2023/12/09 18:00:33;;;;;;;;;;;;;;;;;;6311965;22;20352;-89
2023/12/09 18:02:58;;;;;;;;;;;;;;;;;;6312161;22;19910;-90
2023/12/09 18:05:24;;;;;;;;;;;;;;;;;;6311864;22;19997;-89
2023/12/09 18:07:49;;;;;;;;;;;;;;;;;;6312323;22;20318;-88
2023/12/09 18:10:15;;;;;;;;;;;;;;;;;;6311124;22;19911;-88
2023/12/09 18:12:40;;;;;;;;;;;;;;;;;;6339402;22;20300;-88
2023/12/09 18:15:06;;;;;;;;;;;;;;;;;;6312106;22;19918;-88
2023/12/09 18:17:32;;;;;;;;;;;;;;;;;;6339523;22;20291;-89
2023/12/09 18:19:57;;;;;;;;;;;;;;;;;;6339576;22;19911;-88
2023/12/09 18:22:23;;;;;;;;;;;;;;;;;;6312327;22;19910;-90
2023/12/09 18:24:48;;;;;;;;;;;;;;;;;;6339560;22;19987;-89
2023/12/09 18:27:14;;;;;;;;;;;;;;;;;;6312246;22;19915;-87
2023/12/09 18:29:41;;;;;;;;;;;;;;;;;;6339967;22;19911;-87
2023/12/09 18:32:13;;;;;;;;;;;;;;;;;;6311679;22;20382;-86
2023/12/09 18:34:38;;;;;;;;;;;;;;;;;;6312323;22;19917;-90
2023/12/09 18:37:03;;;;;;;;;;;;;;;;;;6339642;22;19989;-87
2023/12/09 18:39:29;;;;;;;;;;;;;;;;;;6311917;22;19938;-87
2023/12/09 18:41:54;;;;;;;;;;;;;;;;;;6311830;22;19959;-89
2023/12/09 18:44:19;;;;;;;;;;;;;;;;;;6312610;22;20318;-90
2023/12/09 18:46:45;;;;;;;;;;;;;;;;;;6340012;22;20325;-88
2023/12/09 18:49:11;;;;;;;;;;;;;;;;;;6340121;22;20276;-88
2023/12/09 18:51:36;;;;;;;;;;;;;;;;;;6339626;22;19911;-89
2023/12/09 18:54:02;;;;;;;;;;;;;;;;;;6286122;22;19919;-88
2023/12/09 18:56:27;;;;;;;;;;;;;;;;;;6339385;22;19918;-88
2023/12/09 18:58:52;;;;;;;;;;;;;;;;;;6311643;22;19964;-88
2023/12/09 19:01:18;;;;;;;;;;;;;;;;;;6338617;22;19911;-90
2023/12/09 19:03:43;;;;;;;;;;;;;;;;;;6313040;22;20348;-87
2023/12/09 19:06:09;;;;;;;;;;;;;;;;;;6341324;22;19907;-86
2023/12/09 19:08:34;;;;;;;;;;;;;;;;;;6340913;22;19911;-87
2023/12/09 19:10:59;;;;;;;;;;;;;;;;;;6341177;22;19911;-85
2023/12/09 19:13:25;;;;;;;;;;;;;;;;;;6340845;22;19960;-88
2023/12/09 19:15:50;;;;;;;;;;;;;;;;;;6340756;22;19981;-88
2023/12/09 19:18:16;;;;;;;;;;;;;;;;;;6341366;22;19960;-87
2023/12/09 19:20:41;;;;;;;;;;;;;;;;;;6340824;22;19914;-87
2023/12/09 19:23:07;;;;;;;;;;;;;;;;;;6340715;22;19910;-87
2023/12/09 19:25:32;;;;;;;;;;;;;;;;;;6340838;22;19911;-87
2023/12/09 19:27:59;;;;;;;;;;;;;;;;;;6341090;22;20284;-87
2023/12/09 19:30:24;;;;;;;;;;;;;;;;;;6340768;22;19915;-88
2023/12/09 19:32:49;;;;;;;;;;;;;;;;;;6313712;22;20362;-91
2023/12/09 19:35:15;;;;;;;;;;;;;;;;;;6314368;22;19911;-91
2023/12/09 19:37:42;;;;;;;;;;;;;;;;;;6314081;22;19910;-91
2023/12/09 19:40:07;;;;;;;;;;;;;;;;;;6314919;22;20222;-90
2023/12/09 19:42:34;;;;;;;;;;;;;;;;;;6313372;22;19917;-91
2023/12/09 19:44:59;;;;;;;;;;;;;;;;;;6313408;22;19989;-90
2023/12/09 19:47:25;;;;;;;;;;;;;;;;;;6342236;22;19911;-89
2023/12/09 19:49:51;;;;;;;;;;;;;;;;;;6314457;22;20360;-89
2023/12/09 19:52:16;;;;;;;;;;;;;;;;;;6313448;22;19910;-90
2023/12/09 19:54:42;;;;;;;;;;;;;;;;;;6313981;22;19918;-90
2023/12/09 19:57:10;;;;;;;;;;;;;;;;;;6314016;22;19938;-90
2023/12/09 19:59:35;;;;;;;;;;;;;;;;;;6313354;22;19968;-88
2023/12/09 20:02:01;;;;;;;;;;;;;;;;;;6313867;22;19911;-89
2023/12/09 20:04:26;;;;;;;;;;;;;;;;;;6313696;22;19917;-90
2023/12/09 20:06:51;;;;;;;;;;;;;;;;;;6314075;22;19915;-89
2023/12/09 20:09:17;;;;;;;;;;;;;;;;;;6341170;22;19910;-90
2023/12/09 20:11:42;;;;;;;;;;;;;;;;;;6313432;22;19979;-89
2023/12/09 20:14:07;;;;;;;;;;;;;;;;;;6340852;22;19915;-90
2023/12/09 20:16:33;;;;;;;;;;;;;;;;;;6313137;22;19925;-91
2023/12/09 20:18:59;;;;;;;;;;;;;;;;;;6313678;22;19917;-89
2023/12/09 20:21:24;;;;;;;;;;;;;;;;;;6313504;22;19915;-90
2023/12/09 20:23:49;;;;;;;;;;;;;;;;;;6341639;22;20313;-90
2023/12/09 20:26:15;;;;;;;;;;;;;;;;;;6313492;22;19915;-90
2023/12/09 20:28:40;;;;;;;;;;;;;;;;;;6314015;22;19917;-90
2023/12/09 20:31:07;;;;;;;;;;;;;;;;;;6341093;22;20215;-89
2023/12/09 20:33:35;;;;;;;;;;;;;;;;;;6340974;22;19981;-90
2023/12/09 20:36:00;;;;;;;;;;;;;;;;;;6341277;22;19911;-90
2023/12/09 20:38:25;;;;;;;;;;;;;;;;;;6342538;22;19914;-91
2023/12/09 20:40:51;;;;;;;;;;;;;;;;;;6314397;22;19918;-90
2023/12/09 20:43:16;;;;;;;;;;;;;;;;;;6313905;22;19940;-91
2023/12/09 20:45:41;;;;;;;;;;;;;;;;;;6313813;22;19914;-91
2023/12/09 20:48:07;;;;;;;;;;;;;;;;;;6341400;22;20003;-91
2023/12/09 20:50:33;;;;;;;;;;;;;;;;;;6313774;22;19910;-92
2023/12/09 20:52:58;;;;;;;;;;;;;;;;;;6313301;22;20326;-91
2023/12/09 20:55:24;;;;;;;;;;;;;;;;;;6313228;22;19989;-91
2023/12/09 20:57:49;;;;;;;;;;;;;;;;;;6313339;22;20376;-91
2023/12/09 21:00:15;;;;;;;;;;;;;;;;;;6340911;22;19911;-91
2023/12/09 21:02:40;;;;;;;;;;;;;;;;;;6314407;22;19910;-91
2023/12/09 21:05:06;;;;;;;;;;;;;;;;;;6313462;22;19918;-91
2023/12/09 21:07:32;;;;;;;;;;;;;;;;;;6313765;22;19958;-90
2023/12/09 21:09:57;;;;;;;;;;;;;;;;;;6314962;22;19989;-91
2023/12/09 21:12:23;;;;;;;;;;;;;;;;;;6315803;22;19985;-90
2023/12/09 21:14:48;;;;;;;;;;;;;;;;;;6341178;22;20292;-91
2023/12/09 21:17:13;;;;;;;;;;;;;;;;;;6313774;22;19914;-90
2023/12/09 21:19:39;;;;;;;;;;;;;;;;;;6341386;22;19910;-90
2023/12/09 21:22:04;;;;;;;;;;;;;;;;;;6314001;22;19985;-90
2023/12/09 21:24:29;;;;;;;;;;;;;;;;;;6313405;22;19960;-90
2023/12/09 21:26:55;;;;;;;;;;;;;;;;;;6314239;22;19911;-90
2023/12/09 21:29:21;;;;;;;;;;;;;;;;;;6314070;22;19911;-91
2023/12/09 21:31:46;;;;;;;;;;;;;;;;;;6313852;22;19918;-90
2023/12/09 21:34:11;;;;;;;;;;;;;;;;;;6313738;22;19989;-90
2023/12/09 21:36:37;;;;;;;;;;;;;;;;;;6313557;22;19918;-90
2023/12/09 21:39:02;;;;;;;;;;;;;;;;;;6313801;22;19911;-90
2023/12/09 21:41:28;;;;;;;;;;;;;;;;;;6314108;22;19967;-90
2023/12/09 21:43:53;;;;;;;;;;;;;;;;;;6313398;22;19950;-92
2023/12/09 21:46:22;;;;;;;;;;;;;;;;;;6313866;22;19964;-91
2023/12/09 21:48:51;;;;;;;;;;;;;;;;;;6341648;22;19910;-91
2023/12/09 21:51:18;;;;;;;;;;;;;;;;;;6313708;22;19911;-90
2023/12/09 21:53:43;;;;;;;;;;;;;;;;;;6313888;22;19910;-91
2023/12/09 21:56:20;;;;;;;;;;;;;;;;;;6313610;22;19956;-90
2023/12/09 21:58:45;;;;;;;;;;;;;;;;;;6314950;22;19964;-90
2023/12/09 22:01:10;;;;;;;;;;;;;;;;;;6322283;22;19934;-90
2023/12/09 22:03:36;;;;;;;;;;;;;;;;;;6316660;22;19917;-90
2023/12/09 22:06:01;;;;;;;;;;;;;;;;;;6314821;22;19915;-89
2023/12/09 22:08:26;;;;;;;;;;;;;;;;;;6315816;22;19910;-91
2023/12/09 22:10:52;;;;;;;;;;;;;;;;;;6316629;22;19964;-91
2023/12/09 22:13:17;;;;;;;;;;;;;;;;;;6317760;22;19910;-91
2023/12/09 22:15:45;;;;;;;;;;;;;;;;;;6318057;22;19910;-91
2023/12/09 22:18:11;;;;;;;;;;;;;;;;;;6318488;22;19914;-91
2023/12/09 22:20:36;;;;;;;;;;;;;;;;;;6319966;22;19933;-90
2023/12/09 22:23:02;;;;;;;;;;;;;;;;;;6330450;22;19960;-88
2023/12/09 22:25:27;;;;;;;;;;;;;;;;;;6358315;22;19918;-88
2023/12/09 22:27:52;;;;;;;;;;;;;;;;;;6331661;22;19910;-88
2023/12/09 22:30:18;;;;;;;;;;;;;;;;;;6329302;22;19917;-90
2023/12/09 22:32:43;;;;;;;;;;;;;;;;;;6316709;22;19911;-91
2023/12/09 22:35:09;;;;;;;;;;;;;;;;;;6343072;22;19911;-90
2023/12/09 22:37:34;;;;;;;;;;;;;;;;;;6341932;22;19933;-90
2023/12/09 22:39:59;;;;;;;;;;;;;;;;;;6314448;22;19910;-91
2023/12/09 22:42:26;;;;;;;;;;;;;;;;;;6341968;22;19942;-90
2023/12/09 22:44:51;;;;;;;;;;;;;;;;;;6314787;22;20219;-91
2023/12/09 22:47:16;;;;;;;;;;;;;;;;;;6314553;22;19942;-91
2023/12/09 22:49:42;;;;;;;;;;;;;;;;;;6341695;22;19914;-90
2023/12/09 22:52:08;;;;;;;;;;;;;;;;;;6314482;22;19910;-91
2023/12/09 22:54:33;;;;;;;;;;;;;;;;;;6314327;22;19911;-91
2023/12/09 22:56:59;;;;;;;;;;;;;;;;;;6314273;22;19910;-91
2023/12/09 22:59:24;;;;;;;;;;;;;;;;;;6314100;22;20325;-90
2023/12/09 23:01:49;;;;;;;;;;;;;;;;;;6341294;22;19910;-90
2023/12/09 23:04:15;;;;;;;;;;;;;;;;;;6314325;22;19911;-92
2023/12/09 23:06:40;;;;;;;;;;;;;;;;;;6314040;22;19933;-90
2023/12/09 23:09:06;;;;;;;;;;;;;;;;;;6341507;22;19914;-90
2023/12/09 23:11:31;;;;;;;;;;;;;;;;;;6314382;22;20227;-89
2023/12/09 23:13:56;;;;;;;;;;;;;;;;;;6314272;22;19915;-91
2023/12/09 23:16:22;;;;;;;;;;;;;;;;;;6313970;22;19918;-92
